Time;durP1;ratioP1;P1;durP2;ratioP2;P2;SDS_P1;SDS_P2;PMS_P1;PMS_P2;Temp;Humidity;BMP_temperature;BMP_pressure;BME280_temperature;BME280_humidity;BME280_pressure;Samples;Min_cycle;Max_cycle;Signal;HPM_P1;HPM_P2
2022/01/18 00:00:47;;;;;;;10.05;2.83;;;;;;;0.40;82.62;103114.91;4976060;28;20038;-78
2022/01/18 00:03:14;;;;;;;19.50;3.28;;;;;;;0.34;83.44;103110.94;4968026;28;20026;-78
2022/01/18 00:05:42;;;;;;;18.10;3.55;;;;;;;0.30;83.66;103113.00;4989898;28;20019;-77
2022/01/18 00:08:08;;;;;;;14.18;3.63;;;;;;;0.29;83.80;103107.84;4993076;28;20082;-78
2022/01/18 00:10:33;;;;;;;10.25;2.53;;;;;;;0.27;84.13;103101.88;4990879;28;20101;-78
2022/01/18 00:18:18;;;;;;;18.80;4.28;;;;;;;0.33;83.57;103097.88;4989721;28;20037;-78
2022/01/18 00:23:17;;;;;;;12.00;2.55;;;;;;;0.32;83.53;103102.31;4990127;28;20022;-78
2022/01/18 00:25:47;;;;;;;20.67;3.88;;;;;;;0.32;83.49;103106.75;4989457;28;20069;-78
2022/01/18 00:28:14;;;;;;;18.20;3.00;;;;;;;0.33;83.37;103118.97;4989436;28;20508;-78
2022/01/18 00:33:40;;;;;;;17.77;2.60;;;;;;;0.33;83.79;103118.97;4988062;28;20033;-78
2022/01/18 00:36:09;;;;;;;12.77;2.58;;;;;;;0.30;83.92;103125.34;4986059;28;20081;-78
2022/01/18 00:38:46;;;;;;;12.48;3.33;;;;;;;0.34;83.85;103128.56;4984596;28;20030;-78
2022/01/18 00:41:13;;;;;;;17.08;3.38;;;;;;;0.28;84.25;103138.66;4968646;28;20121;-78
2022/01/18 00:43:39;;;;;;;17.63;3.03;;;;;;;0.23;84.74;103124.16;4972216;28;20030;-78
2022/01/18 00:46:05;;;;;;;18.83;3.20;;;;;;;0.29;84.25;103140.31;4971030;28;20029;-78
2022/01/18 00:48:34;;;;;;;19.20;3.70;;;;;;;0.26;84.70;103148.47;4988225;28;20030;-79
2022/01/18 00:51:00;;;;;;;17.23;4.10;;;;;;;0.23;85.09;103140.81;4975823;28;20138;-78
2022/01/18 00:53:26;;;;;;;16.90;3.60;;;;;;;0.25;84.91;103146.81;4988151;28;20032;-78
2022/01/18 00:56:07;;;;;;;12.80;3.03;;;;;;;0.28;84.49;103149.19;4988707;28;20392;-78
2022/01/18 00:58:33;;;;;;;21.40;3.15;;;;;;;0.25;85.24;103151.25;4987188;28;20108;-78
2022/01/18 01:00:59;;;;;;;20.33;3.70;;;;;;;0.24;85.33;103153.03;4988750;28;20026;-78
2022/01/18 01:03:24;;;;;;;19.98;3.85;;;;;;;0.21;86.28;103158.56;4987130;28;20510;-77
2022/01/18 01:05:50;;;;;;;15.73;4.22;;;;;;;0.29;84.79;103169.34;4976233;28;20471;-77
2022/01/18 01:08:16;;;;;;;12.27;3.35;;;;;;;0.33;84.85;103174.34;4985472;28;20121;-79
2022/01/18 01:10:41;;;;;;;14.48;4.63;;;;;;;0.31;84.81;103171.84;4989140;28;20453;-78
2022/01/18 01:13:08;;;;;;;14.77;2.63;;;;;;;0.35;84.54;103177.72;4986987;28;20407;-78
2022/01/18 01:15:41;;;;;;;17.35;3.38;;;;;;;0.22;85.90;103177.84;4987469;28;20425;-78
2022/01/18 01:18:31;;;;;;;16.73;3.53;;;;;;;0.23;85.76;103177.75;4969523;28;20076;-78
2022/01/18 01:32:20;;;;;;;17.48;3.20;;;;;;;0.26;86.30;103171.38;4986599;28;20144;-78
2022/01/18 01:34:54;;;;;;;16.70;3.13;;;;;;;0.30;85.64;103168.38;4989003;28;21684;-78
2022/01/18 01:45:26;;;;;;;16.25;3.17;;;;;;;0.20;86.69;103188.53;4988046;28;20018;-78
2022/01/18 01:47:54;;;;;;;22.60;4.30;;;;;;;0.16;87.02;103186.22;4969989;28;20037;-78
2022/01/18 01:50:22;;;;;;;19.67;3.55;;;;;;;0.16;87.07;103191.50;4987000;28;20033;-78
2022/01/18 01:52:50;;;;;;;17.90;3.63;;;;;;;0.21;86.45;103199.91;4988371;28;20650;-78
2022/01/18 01:55:18;;;;;;;16.88;3.30;;;;;;;0.19;86.80;103193.94;4967654;28;20026;-78
2022/01/18 01:57:44;;;;;;;16.65;3.53;;;;;;;0.21;86.63;103192.84;4966848;28;20030;-78
2022/01/18 02:00:14;;;;;;;11.98;2.67;;;;;;;0.24;85.99;103200.50;4987540;28;20539;-78
2022/01/18 02:02:39;;;;;;;16.85;3.35;;;;;;;0.22;86.57;103217.41;4981435;28;20692;-78
2022/01/18 02:05:06;;;;;;;16.05;2.90;;;;;;;0.19;86.19;103218.50;4984947;28;20057;-78
2022/01/18 02:07:31;;;;;;;23.33;4.20;;;;;;;0.16;86.87;103213.44;4969852;28;20034;-78
2022/01/18 02:09:57;;;;;;;19.42;2.85;;;;;;;0.16;86.43;103210.78;4969645;28;20038;-78
2022/01/18 02:12:24;;;;;;;13.70;3.50;;;;;;;0.12;87.12;103217.28;4984041;28;20026;-78
2022/01/18 02:14:58;;;;;;;18.40;3.50;;;;;;;0.10;87.51;103205.16;4983115;28;20022;-77
2022/01/18 02:22:54;;;;;;;16.08;3.00;;;;;;;0.10;87.04;103200.75;4978960;28;20033;-78
2022/01/18 02:25:19;;;;;;;20.48;3.72;;;;;;;0.07;86.86;103205.41;4987700;28;20073;-78
2022/01/18 02:27:45;;;;;;;14.13;2.78;;;;;;;0.08;86.78;103202.66;4982284;28;20489;-79
2022/01/18 02:30:11;;;;;;;16.48;3.90;;;;;;;0.15;85.95;103189.81;4969670;28;20590;-77
2022/01/18 02:32:37;;;;;;;19.80;3.45;;;;;;;0.07;86.42;103186.97;4967680;28;20061;-78
2022/01/18 02:35:04;;;;;;;18.38;3.58;;;;;;;0.06;86.55;103193.19;4968248;28;20423;-78
2022/01/18 02:37:29;;;;;;;20.95;3.70;;;;;;;0.10;86.30;103192.84;4984265;28;20030;-78
2022/01/18 02:39:55;;;;;;;18.17;3.53;;;;;;;0.09;86.08;103191.16;4971292;28;20100;-78
2022/01/18 02:42:25;;;;;;;23.35;4.82;;;;;;;0.05;86.25;103189.72;4971586;28;20068;-78
2022/01/18 02:44:52;;;;;;;14.98;3.42;;;;;;;-0.11;86.93;103178.69;4969795;28;20023;-78
2022/01/18 02:47:22;;;;;;;15.23;3.38;;;;;;;-0.12;87.68;103184.91;4970947;28;20022;-77
2022/01/18 02:49:49;;;;;;;13.25;3.15;;;;;;;-0.17;88.37;103173.91;4974819;28;20114;-78
2022/01/18 02:52:16;;;;;;;17.83;2.97;;;;;;;-0.11;87.62;103176.88;4970367;28;20070;-78
2022/01/18 02:54:41;;;;;;;16.20;3.78;;;;;;;-0.10;87.60;103169.81;4977474;28;20455;-78
2022/01/18 02:57:12;;;;;;;22.42;3.92;;;;;;;-0.06;87.23;103166.81;4970096;28;20099;-78
2022/01/18 03:00:06;;;;;;;15.23;4.45;;;;;;;0.01;86.46;103175.13;4969947;28;20113;-78
2022/01/18 03:05:16;;;;;;;14.85;2.58;;;;;;;-0.15;87.60;103187.78;4986759;28;20383;-78
2022/01/18 03:07:43;;;;;;;15.32;3.55;;;;;;;-0.18;88.11;103185.38;4969031;28;20026;-77
2022/01/18 03:10:11;;;;;;;24.98;5.45;;;;;;;-0.17;88.07;103187.06;4984851;28;20054;-78
2022/01/18 03:12:36;;;;;;;16.60;4.05;;;;;;;-0.14;87.29;103186.84;4988474;28;20030;-78
2022/01/18 03:15:02;;;;;;;18.95;4.00;;;;;;;-0.15;87.15;103191.28;4985293;28;20030;-78
2022/01/18 03:17:28;;;;;;;12.82;2.85;;;;;;;-0.14;87.23;103194.75;4967519;28;20034;-78
2022/01/18 03:19:54;;;;;;;22.80;3.88;;;;;;;-0.23;87.87;103195.44;4988269;28;20025;-78
2022/01/18 03:22:20;;;;;;;18.40;4.95;;;;;;;-0.25;88.12;103206.09;4988379;28;20034;-78
2022/01/18 03:24:49;;;;;;;17.35;3.80;;;;;;;-0.29;88.46;103203.81;4972261;28;20084;-78
2022/01/18 03:30:03;;;;;;;17.48;3.58;;;;;;;-0.29;88.98;103206.44;4984517;28;20432;-77
2022/01/18 03:32:29;;;;;;;19.23;3.15;;;;;;;-0.31;88.71;103202.13;4982413;28;20034;-78
2022/01/18 03:34:54;;;;;;;31.98;5.50;;;;;;;-0.38;89.05;103203.53;4984289;28;20031;-78
2022/01/18 03:37:20;;;;;;;18.80;3.90;;;;;;;-0.27;88.30;103208.00;4985154;28;20122;-78
2022/01/18 03:39:45;;;;;;;24.48;4.75;;;;;;;-0.40;89.23;103202.81;4979297;28;20383;-77
2022/01/18 03:45:08;;;;;;;15.33;3.53;;;;;;;-0.44;89.48;103221.59;4979648;28;20639;-78
2022/01/18 03:47:34;;;;;;;15.88;3.08;;;;;;;-0.44;89.70;103222.44;4972604;28;20104;-78
2022/01/18 03:50:00;;;;;;;13.60;3.05;;;;;;;-0.51;90.14;103218.59;4973439;28;20030;-78
2022/01/18 03:52:26;;;;;;;23.92;4.15;;;;;;;-0.43;89.73;103220.66;4983294;28;20026;-78
2022/01/18 03:54:53;;;;;;;9.75;2.88;;;;;;;-0.39;89.39;103224.72;4973769;28;20464;-78
2022/01/18 03:57:19;;;;;;;30.60;3.95;;;;;;;-0.41;89.04;103231.91;4988253;28;20042;-78
2022/01/18 03:59:45;;;;;;;13.15;3.08;;;;;;;-0.42;89.49;103233.69;4989834;28;20026;-78
2022/01/18 04:02:11;;;;;;;15.73;2.92;;;;;;;-0.42;89.89;103243.41;4984687;28;20100;-78
2022/01/18 04:04:37;;;;;;;20.25;3.55;;;;;;;-0.44;89.84;103255.84;4987641;28;20026;-79
2022/01/18 04:07:04;;;;;;;19.65;2.95;;;;;;;-0.38;89.48;103243.03;4967665;28;20500;-78
2022/01/18 04:09:30;;;;;;;22.70;4.05;;;;;;;-0.41;89.63;103240.66;4988486;28;20115;-78
2022/01/18 04:11:55;;;;;;;16.83;3.83;;;;;;;-0.42;89.81;103238.13;4988589;28;20912;-78
2022/01/18 04:14:21;;;;;;;18.65;3.45;;;;;;;-0.40;89.59;103226.53;4987081;28;20045;-79
2022/01/18 04:28:12;;;;;;;19.47;3.07;;;;;;;-0.47;89.96;103235.84;4982469;28;20029;-78
2022/01/18 04:30:37;;;;;;;;;;;;;;;-0.57;90.77;103241.91;4972996;28;20026;-78
2022/01/18 04:33:03;;;;;;;16.30;3.45;;;;;;;-0.54;90.39;103253.03;4971278;28;19963;-78
2022/01/18 04:35:28;;;;;;;19.05;4.07;;;;;;;-0.58;90.64;103264.75;4971296;28;20133;-77
2022/01/18 04:37:54;;;;;;;17.92;3.38;;;;;;;-0.56;91.04;103256.75;4980348;28;20022;-78
2022/01/18 04:40:26;;;;;;;13.27;4.07;;;;;;;-0.49;90.47;103253.56;4968227;28;20105;-78
2022/01/18 04:50:51;;;;;;;;;;;;;;;-0.58;90.33;103274.47;4989006;28;20466;-78
2022/01/18 04:53:17;;;;;;;20.30;4.53;;;;;;;-0.56;90.48;103267.28;4987233;28;19939;-78
2022/01/18 04:55:42;;;;;;;17.70;3.22;;;;;;;-0.57;90.24;103274.34;4969350;28;20472;-78
2022/01/18 04:58:08;;;;;;;12.82;3.55;;;;;;;-0.63;90.34;103275.66;4986700;28;20492;-78
2022/01/18 05:00:33;;;;;;;17.75;3.53;;;;;;;-0.61;90.66;103270.25;4975126;28;20022;-78
2022/01/18 05:02:59;;;;;;;22.40;4.10;;;;;;;-0.59;90.75;103267.50;4967976;28;20475;-78
2022/01/18 05:07:52;;;;;;;18.50;3.38;;;;;;;-0.58;90.58;103274.47;4986684;28;20053;-78
2022/01/18 05:10:20;;;;;;;27.50;3.65;;;;;;;-0.58;90.83;103263.94;4988118;28;20034;-78
2022/01/18 05:12:49;;;;;;;13.90;3.28;;;;;;;-0.61;90.97;103270.25;4971690;28;20084;-78
2022/01/18 05:23:16;;;;;;;24.08;3.60;;;;;;;-0.57;90.19;103276.97;4984161;28;20042;-78
2022/01/18 05:25:45;;;;;;;16.95;5.40;;;;;;;-0.57;90.49;103281.41;4965446;28;20031;-78
2022/01/18 05:28:11;;;;;;;16.50;3.47;;;;;;;-0.51;90.17;103284.44;4981803;28;20075;-79
2022/01/18 05:30:36;;;;;;;14.18;3.60;;;;;;;-0.60;91.27;103287.75;4967941;28;20396;-79
2022/01/18 05:33:02;;;;;;;17.05;3.53;;;;;;;-0.70;91.86;103292.03;4983638;28;20030;-78
2022/01/18 05:35:28;;;;;;;12.35;3.03;;;;;;;-0.70;91.96;103284.13;4966092;28;20034;-78
2022/01/18 05:37:53;;;;;;;19.02;4.05;;;;;;;-0.58;91.45;103285.84;4972435;28;20033;-78
2022/01/18 05:40:20;;;;;;;27.70;4.20;;;;;;;-0.56;91.18;103286.56;4967104;28;20375;-78
2022/01/18 05:42:45;;;;;;;26.65;4.03;;;;;;;-0.61;90.95;103294.81;4985944;28;20084;-78
2022/01/18 05:45:12;;;;;;;22.75;3.72;;;;;;;-0.59;91.08;103304.38;4962785;28;20309;-78
2022/01/18 05:47:40;;;;;;;18.98;4.55;;;;;;;-0.61;91.55;103304.50;4968296;28;20037;-79
2022/01/18 05:50:07;;;;;;;27.25;3.70;;;;;;;-0.62;91.37;103300.19;4980109;28;20149;-78
2022/01/18 05:52:33;;;;;;;12.45;3.53;;;;;;;-0.67;92.24;103299.69;4969952;28;20030;-78
2022/01/18 05:54:58;;;;;;;14.80;4.10;;;;;;;-0.69;92.34;103301.59;4982745;28;20027;-78
2022/01/18 05:57:24;;;;;;;13.90;3.33;;;;;;;-0.65;92.35;103300.41;4967999;28;20381;-79
2022/01/18 05:59:50;;;;;;;17.95;3.33;;;;;;;-0.57;91.50;103308.56;4983471;28;20663;-78
2022/01/18 06:02:34;;;;;;;23.45;4.78;;;;;;;-0.49;90.69;103310.66;4981531;28;20468;-78
2022/01/18 06:07:44;;;;;;;23.17;4.22;;;;;;;-0.55;91.23;103332.16;4983240;28;20064;-79
2022/01/18 06:10:09;;;;;;;23.63;3.63;;;;;;;-0.51;91.07;103355.56;4964071;28;20030;-78
2022/01/18 06:12:41;;;;;;;25.23;3.85;;;;;;;-0.51;90.92;103346.81;4963071;28;20054;-78
2022/01/18 06:15:07;;;;;;;17.10;3.63;;;;;;;-0.63;91.76;103336.22;4980900;28;20030;-78
2022/01/18 06:17:33;;;;;;;16.90;3.10;;;;;;;-0.50;90.75;103332.69;4965309;28;20030;-79
2022/01/18 06:19:58;;;;;;;19.90;4.07;;;;;;;-0.56;90.83;103330.47;4962991;28;20117;-78
2022/01/18 06:22:24;;;;;;;20.13;3.78;;;;;;;-0.59;90.96;103342.09;4963462;28;20037;-79
2022/01/18 06:24:50;;;;;;;18.30;4.03;;;;;;;-0.49;90.60;103332.56;4965299;28;20038;-78
2022/01/18 06:27:15;;;;;;;19.25;3.25;;;;;;;-0.47;90.16;103350.91;4980417;28;20033;-78
2022/01/18 06:29:41;;;;;;;18.33;2.80;;;;;;;-0.48;90.15;103344.78;4973852;28;20026;-79
2022/01/18 06:32:07;;;;;;;19.30;4.32;;;;;;;-0.58;90.49;103350.81;4978732;28;20476;-76
2022/01/18 06:34:33;;;;;;;16.38;3.70;;;;;;;-0.51;90.96;103352.09;4963191;28;20042;-77
2022/01/18 06:36:59;;;;;;;16.88;3.85;;;;;;;-0.53;90.84;103359.25;4963245;28;20040;-76
2022/01/18 06:39:24;;;;;;;23.10;4.32;;;;;;;-0.60;91.52;103361.47;4976339;28;20034;-76
2022/01/18 06:41:50;;;;;;;22.90;3.83;;;;;;;-0.67;92.15;103361.09;4982687;28;20077;-76
2022/01/18 06:44:16;;;;;;;12.95;4.13;;;;;;;-0.61;91.95;103363.25;4980253;28;20053;-76
2022/01/18 06:46:41;;;;;;;18.38;4.05;;;;;;;-0.54;91.20;103370.72;4976723;28;20030;-76
2022/01/18 06:49:07;;;;;;;16.77;4.53;;;;;;;-0.54;91.04;103382.09;4980150;28;20057;-76
2022/01/18 06:51:34;;;;;;;19.10;3.95;;;;;;;-0.53;90.72;103377.69;4980675;28;20026;-76
2022/01/18 06:53:59;;;;;;;17.65;3.67;;;;;;;-0.42;90.19;103383.00;4969363;28;20085;-76
2022/01/18 06:56:28;;;;;;;23.23;4.43;;;;;;;-0.50;90.56;103377.47;4976261;28;20625;-76
2022/01/18 06:58:54;;;;;;;21.63;4.25;;;;;;;-0.59;91.08;103373.69;4982014;28;20061;-76
2022/01/18 07:01:20;;;;;;;20.92;4.07;;;;;;;-0.57;91.22;103382.31;4981932;28;20037;-76
2022/01/18 07:03:48;;;;;;;16.40;3.35;;;;;;;-0.56;91.09;103398.94;4973133;28;20019;-76
2022/01/18 07:06:15;;;;;;;14.43;3.13;;;;;;;-0.54;90.89;103411.06;4961139;28;20448;-76
2022/01/18 07:08:41;;;;;;;12.63;3.15;;;;;;;-0.64;92.17;103412.69;4966651;28;20089;-76
2022/01/18 07:11:07;;;;;;;22.92;3.53;;;;;;;-0.63;92.52;103409.09;4964229;28;20022;-76
2022/01/18 07:13:32;;;;;;;19.77;3.90;;;;;;;-0.65;92.44;103416.25;4977883;28;20491;-76
2022/01/18 07:15:58;;;;;;;21.88;3.80;;;;;;;-0.58;92.12;103422.75;4961654;28;20030;-77
2022/01/18 07:18:24;;;;;;;17.92;4.65;;;;;;;-0.65;92.26;103418.91;4980846;28;20026;-76
2022/01/18 07:20:50;;;;;;;17.40;3.67;;;;;;;-0.67;92.67;103418.16;4981805;28;20033;-76
2022/01/18 07:23:15;;;;;;;26.02;5.25;;;;;;;-0.62;92.11;103422.16;4983501;28;20423;-76
2022/01/18 07:25:44;;;;;;;18.75;3.72;;;;;;;-0.54;91.91;103432.13;4976158;28;20026;-76
2022/01/18 07:28:11;;;;;;;17.95;3.80;;;;;;;-0.51;91.18;103445.09;4983822;28;20041;-76
2022/01/18 07:30:38;;;;;;;21.95;3.85;;;;;;;-0.55;91.95;103454.16;4986804;28;20028;-76
2022/01/18 07:33:06;;;;;;;19.83;4.75;;;;;;;-0.56;91.68;103447.19;4965374;28;20500;-76
2022/01/18 07:35:34;;;;;;;19.33;3.97;;;;;;;-0.55;91.82;103454.16;4983396;28;20038;-76
2022/01/18 07:38:04;;;;;;;24.45;4.95;;;;;;;-0.52;91.53;103464.50;4968433;28;20480;-76
2022/01/18 07:40:32;;;;;;;21.00;3.80;;;;;;;-0.52;91.96;103467.13;4998525;28;20026;-77
2022/01/18 07:43:00;;;;;;;26.98;4.30;;;;;;;-0.54;92.05;103463.72;4995072;28;20034;-76
2022/01/18 07:45:27;;;;;;;12.77;3.58;;;;;;;-0.63;93.06;103462.59;4989601;28;20058;-76
2022/01/18 07:47:52;;;;;;;23.80;3.80;;;;;;;-0.60;92.77;103458.91;4986022;28;20113;-76
2022/01/18 07:50:18;;;;;;;17.00;3.70;;;;;;;-0.49;92.89;103463.41;4965361;28;20741;-76
2022/01/18 07:52:43;;;;;;;19.65;3.58;;;;;;;-0.43;92.44;103481.41;4980070;28;20026;-76
2022/01/18 07:55:09;;;;;;;21.02;3.97;;;;;;;-0.37;91.83;103484.44;4982284;28;20077;-76
2022/01/18 07:57:41;;;;;;;14.07;4.15;;;;;;;-0.31;91.91;103477.91;4965602;28;20080;-76
2022/01/18 08:00:07;;;;;;;20.30;4.97;;;;;;;-0.28;91.75;103476.84;4982150;28;20035;-76
2022/01/18 08:02:33;;;;;;;15.75;3.92;;;;;;;-0.23;91.67;103486.09;4964814;28;20045;-76
2022/01/18 08:04:59;;;;;;;15.27;5.32;;;;;;;-0.10;90.83;103480.78;4981656;28;20226;-76
2022/01/18 08:07:25;;;;;;;22.70;5.43;;;;;;;-0.09;91.06;103483.31;4985265;28;20039;-77
2022/01/18 08:09:50;;;;;;;12.13;3.25;;;;;;;-0.09;91.19;103477.19;4978929;28;20122;-76
2022/01/18 08:12:17;;;;;;;18.15;3.58;;;;;;;-0.07;91.71;103491.09;4983681;28;20069;-76
2022/01/18 08:14:46;;;;;;;18.75;3.40;;;;;;;0.02;91.44;103486.97;4986277;28;20030;-76
2022/01/18 08:17:11;;;;;;;12.77;2.95;;;;;;;0.13;91.06;103506.31;4983473;28;20034;-77
2022/01/18 08:19:37;;;;;;;19.85;4.88;;;;;;;0.24;90.75;103502.91;4979673;28;20030;-76
2022/01/18 08:22:03;;;;;;;14.80;3.15;;;;;;;0.34;90.27;103506.53;4965302;28;20031;-76
2022/01/18 08:24:29;;;;;;;16.75;3.17;;;;;;;0.48;89.35;103508.16;4968652;28;20113;-76
2022/01/18 08:26:55;;;;;;;15.65;3.22;;;;;;;0.59;88.42;103505.56;4985149;28;20125;-76
2022/01/18 08:29:22;;;;;;;12.98;3.55;;;;;;;0.68;87.86;103511.94;4982352;28;20112;-76
2022/01/18 08:31:48;;;;;;;19.63;4.13;;;;;;;0.72;87.47;103503.69;4980922;28;20030;-76
2022/01/18 08:34:14;;;;;;;21.65;5.68;;;;;;;0.77;87.14;103509.44;4968450;28;20453;-76
2022/01/18 08:36:40;;;;;;;22.48;3.30;;;;;;;0.80;87.23;103511.84;4979465;28;20396;-77
2022/01/18 08:39:07;;;;;;;29.02;4.85;;;;;;;0.88;87.00;103501.53;4977598;28;20473;-77
2022/01/18 08:41:33;;;;;;;19.77;3.47;;;;;;;0.97;86.88;103496.53;4985964;28;20061;-76
2022/01/18 08:43:58;;;;;;;24.48;4.43;;;;;;;1.03;86.50;103494.25;4964916;28;20027;-77
2022/01/18 08:46:24;;;;;;;15.25;3.60;;;;;;;1.14;86.24;103498.72;4977905;28;20275;-77
2022/01/18 08:48:50;;;;;;;21.55;3.55;;;;;;;1.23;86.06;103503.25;4974207;28;21021;-76
2022/01/18 08:51:16;;;;;;;18.95;3.70;;;;;;;1.34;85.61;103507.72;4966460;28;20061;-77
2022/01/18 08:53:42;;;;;;;12.13;2.78;;;;;;;1.38;85.77;103495.94;4985178;28;20041;-77
2022/01/18 08:56:08;;;;;;;26.05;4.90;;;;;;;1.44;85.70;103498.13;4982667;28;20395;-77
2022/01/18 08:58:34;;;;;;;14.35;3.25;;;;;;;1.46;85.62;103490.91;4974885;28;20040;-77
2022/01/18 09:01:02;;;;;;;22.67;4.20;;;;;;;1.56;85.45;103504.22;4964184;28;20089;-77
2022/01/18 09:03:28;;;;;;;15.10;3.63;;;;;;;1.68;85.14;103509.38;4983056;28;20445;-77
2022/01/18 09:05:53;;;;;;;15.38;3.75;;;;;;;1.78;84.72;103504.19;4983789;28;20093;-77
2022/01/18 09:08:20;;;;;;;12.60;3.30;;;;;;;1.79;84.91;103506.72;4982454;28;20061;-77
2022/01/18 09:10:47;;;;;;;14.93;3.25;;;;;;;1.86;84.95;103519.47;4975352;28;20022;-76
2022/01/18 09:13:14;;;;;;;17.92;4.30;;;;;;;1.80;85.35;103500.50;4971620;28;20281;-77
2022/01/18 09:15:40;;;;;;;14.48;4.45;;;;;;;1.94;85.29;103502.00;4978431;28;20030;-77
2022/01/18 09:18:06;;;;;;;16.05;3.78;;;;;;;1.98;84.93;103506.09;4973322;28;20030;-76
2022/01/18 09:20:32;;;;;;;25.48;4.65;;;;;;;1.99;85.33;103506.94;4985590;28;20038;-77
2022/01/18 09:22:58;;;;;;;16.70;4.03;;;;;;;1.98;85.45;103510.56;4969473;28;20278;-77
2022/01/18 09:25:26;;;;;;;13.77;4.05;;;;;;;2.08;85.68;103520.25;4981190;28;20113;-78
2022/01/18 09:27:53;;;;;;;30.65;5.40;;;;;;;2.18;85.21;103522.16;4974180;28;20492;-77
2022/01/18 09:30:19;;;;;;;20.55;4.20;;;;;;;2.19;85.01;103527.31;4982582;28;20033;-77
2022/01/18 09:32:46;;;;;;;17.48;4.18;;;;;;;2.22;85.03;103520.94;4978793;28;20026;-77
2022/01/18 09:35:12;;;;;;;18.27;4.72;;;;;;;2.17;84.84;103525.75;4965749;28;20031;-77
2022/01/18 09:37:38;;;;;;;16.33;3.88;;;;;;;2.26;84.91;103536.41;4972652;28;20030;-77
2022/01/18 09:40:06;;;;;;;24.30;5.97;;;;;;;2.26;84.78;103540.88;4977844;28;20027;-77
2022/01/18 09:42:37;;;;;;;22.67;5.07;;;;;;;2.33;84.79;103544.69;4967313;28;20033;-77
2022/01/18 09:45:11;;;;;;;19.80;4.30;;;;;;;2.36;84.36;103547.09;4983010;28;20036;-77
2022/01/18 09:47:39;;;;;;;20.23;4.70;;;;;;;2.47;84.43;103544.41;4962009;28;20058;-77
2022/01/18 09:50:07;;;;;;;15.88;4.22;;;;;;;2.44;84.20;103552.59;4981662;28;20062;-77
2022/01/18 09:52:33;;;;;;;23.75;4.43;;;;;;;2.54;84.30;103563.28;4983823;28;20435;-77
2022/01/18 09:54:58;;;;;;;18.67;4.03;;;;;;;2.66;83.81;103556.94;4975594;28;20026;-77
2022/01/18 09:57:24;;;;;;;16.48;3.92;;;;;;;2.64;83.45;103553.59;4968046;28;20388;-77
2022/01/18 09:59:49;;;;;;;20.15;4.75;;;;;;;2.70;83.51;103550.47;4968273;28;20105;-77
2022/01/18 10:02:15;;;;;;;13.32;4.43;;;;;;;2.69;83.55;103541.69;4964320;28;20589;-77
2022/01/18 10:04:43;;;;;;;16.77;3.85;;;;;;;2.71;83.39;103544.19;4982539;28;20072;-77
2022/01/18 10:07:09;;;;;;;19.35;4.10;;;;;;;2.87;83.33;103552.53;4976231;28;20051;-77
2022/01/18 10:09:34;;;;;;;15.57;3.92;;;;;;;2.85;83.44;103551.81;4967397;28;20060;-77
2022/01/18 10:12:14;;;;;;;24.35;4.22;;;;;;;2.73;83.38;103537.81;4983093;28;20039;-77
2022/01/18 10:14:53;;;;;;;17.35;4.55;;;;;;;2.81;83.54;103538.97;4979787;28;20026;-77
2022/01/18 10:17:28;;;;;;;16.40;4.30;;;;;;;2.95;83.49;103531.53;4982258;28;20027;-77
2022/01/18 10:19:53;;;;;;;17.52;5.25;;;;;;;3.03;83.34;103533.53;4979880;28;20034;-77
2022/01/18 10:22:25;;;;;;;30.27;6.40;;;;;;;3.28;83.32;103530.47;4979333;28;20043;-77
2022/01/18 10:24:52;;;;;;;30.98;9.68;;;;;;;3.46;82.67;103538.66;4972941;28;20031;-77
2022/01/18 10:27:18;;;;;;;24.85;8.75;;;;;;;3.45;81.64;103533.47;4980766;28;20050;-77
2022/01/18 10:29:50;;;;;;;26.13;7.80;;;;;;;3.46;82.09;103530.69;4963496;28;20554;-77
2022/01/18 10:37:19;;;;;;;23.25;4.88;;;;;;;3.55;80.43;103550.25;4981764;28;20484;-77
2022/01/18 10:39:50;;;;;;;24.17;4.72;;;;;;;3.54;80.67;103544.09;4982958;28;20126;-77
2022/01/18 10:42:29;;;;;;;21.38;4.45;;;;;;;3.52;80.94;103539.91;4980315;28;20026;-77
2022/01/18 10:45:37;;;;;;;15.55;4.15;;;;;;;3.58;81.57;103542.03;4972871;28;20018;-77
2022/01/18 10:48:04;;;;;;;16.73;3.80;;;;;;;3.63;81.27;103539.84;4960649;28;20046;-77
2022/01/18 10:50:34;;;;;;;18.55;4.28;;;;;;;3.65;80.80;103540.53;4983729;28;20092;-77
2022/01/18 10:53:21;;;;;;;17.95;3.97;;;;;;;3.68;80.70;103537.59;4982250;28;20042;-77
2022/01/18 10:55:49;;;;;;;21.23;3.85;;;;;;;3.81;80.63;103540.03;4975358;28;20030;-77
2022/01/18 10:58:18;;;;;;;23.02;4.25;;;;;;;3.88;80.82;103542.00;4965824;28;20369;-77
2022/01/18 11:00:44;;;;;;;14.65;3.35;;;;;;;3.89;80.23;103533.06;4966495;28;20488;-77
2022/01/18 11:03:11;;;;;;;17.15;3.60;;;;;;;3.99;79.92;103545.53;4980412;28;20030;-77
2022/01/18 11:05:39;;;;;;;15.18;4.00;;;;;;;4.08;79.90;103536.72;4982185;28;20030;-77
2022/01/18 11:08:06;;;;;;;17.30;3.30;;;;;;;4.10;79.56;103540.09;4977119;28;20030;-77
2022/01/18 11:10:40;;;;;;;16.55;3.38;;;;;;;4.36;79.76;103548.38;4982352;28;20189;-77
2022/01/18 11:13:22;;;;;;;21.50;3.63;;;;;;;4.59;78.81;103559.56;4979951;28;20384;-77
2022/01/18 11:15:52;;;;;;;14.50;2.95;;;;;;;4.75;77.95;103558.00;4961876;28;20442;-77
2022/01/18 11:18:28;;;;;;;15.88;4.00;;;;;;;4.90;77.68;103550.44;4980956;28;20027;-77
2022/01/18 11:20:55;;;;;;;13.20;3.15;;;;;;;5.06;76.94;103547.22;4977647;28;20500;-77
2022/01/18 11:23:22;;;;;;;25.40;3.95;;;;;;;5.14;75.96;103542.00;4962921;28;20061;-77
2022/01/18 11:25:50;;;;;;;15.85;4.13;;;;;;;5.34;75.92;103545.44;4982439;28;20476;-76
2022/01/18 11:28:16;;;;;;;15.88;3.83;;;;;;;5.47;75.21;103538.81;4957654;28;20883;-77
2022/01/18 11:30:44;;;;;;;12.93;3.35;;;;;;;5.67;75.11;103542.22;4983636;28;20058;-76
2022/01/18 11:33:18;;;;;;;16.15;3.70;;;;;;;5.77;73.53;103539.53;4963841;28;20037;-76
2022/01/18 11:35:57;;;;;;;17.20;4.25;;;;;;;5.88;73.71;103543.78;4982592;28;20035;-77
2022/01/18 11:38:37;;;;;;;19.98;4.05;;;;;;;6.02;72.79;103543.34;4981075;28;20031;-76
2022/01/18 11:41:04;;;;;;;17.90;3.28;;;;;;;6.17;72.42;103541.00;4963787;28;20517;-77
2022/01/18 11:43:35;;;;;;;17.52;3.33;;;;;;;6.17;71.89;103538.34;4980353;28;20175;-76
2022/01/18 11:46:32;;;;;;;12.32;2.88;;;;;;;6.21;71.06;103542.38;4978211;28;20070;-76
2022/01/18 11:49:03;;;;;;;11.38;2.97;;;;;;;6.23;70.66;103551.88;4962120;28;20045;-76
2022/01/18 11:51:40;;;;;;;13.88;3.85;;;;;;;6.36;71.20;103536.38;4981939;28;20649;-76
2022/01/18 11:55:17;;;;;;;14.10;3.30;;;;;;;6.47;71.02;103542.47;4979038;28;20030;-76
2022/01/18 11:57:23;;;;;;;14.48;3.53;;;;;;;6.63;70.81;103539.91;4977334;28;20038;-76
2022/01/18 11:59:55;;;;;;;13.13;3.30;;;;;;;6.62;70.37;103541.75;4982633;28;20096;-76
2022/01/18 12:02:30;;;;;;;13.63;2.80;;;;;;;6.72;70.33;103541.69;4980981;28;20451;-76
2022/01/18 12:04:58;;;;;;;14.77;3.28;;;;;;;6.81;70.50;103542.56;4977406;28;20531;-76
2022/01/18 12:07:33;;;;;;;11.52;3.75;;;;;;;6.90;69.36;103536.31;4983409;28;20068;-76
2022/01/18 12:09:59;;;;;;;;;;;;;;;6.87;68.23;103531.31;4986100;28;20026;-76
2022/01/18 12:12:39;;;;;;;12.63;3.63;;;;;;;6.89;68.29;103532.81;4985406;28;19987;-76
2022/01/18 12:15:26;;;;;;;21.02;4.20;;;;;;;6.94;69.11;103530.50;4982685;28;20042;-77
2022/01/18 12:17:57;;;;;;;11.93;3.03;;;;;;;6.98;69.07;103542.53;4965753;28;20034;-76
2022/01/18 12:20:32;;;;;;;13.07;4.03;;;;;;;6.92;68.51;103537.84;4966736;28;20477;-76
2022/01/18 12:23:10;;;;;;;12.77;4.15;;;;;;;6.96;68.94;103528.53;4983759;28;20038;-76
2022/01/18 12:25:40;;;;;;;17.30;3.85;;;;;;;7.01;69.71;103525.41;4979492;28;20050;-76
2022/01/18 12:28:47;;;;;;;19.17;4.63;;;;;;;6.96;69.93;103528.53;4982958;28;20026;-77
2022/01/18 12:34:36;;;;;;;18.50;3.92;;;;;;;6.82;70.11;103537.09;4980954;28;20073;-77
2022/01/18 12:37:07;;;;;;;15.68;4.30;;;;;;;7.06;68.85;103536.44;4985424;28;20640;-76
2022/01/18 12:45:05;;;;;;;12.93;3.58;;;;;;;6.77;69.79;103535.88;4981032;28;20034;-77
2022/01/18 12:47:34;;;;;;;16.83;3.22;;;;;;;6.73;70.12;103532.69;4980538;28;20030;-77
2022/01/18 12:50:00;;;;;;;12.88;3.05;;;;;;;6.66;69.90;103536.97;4977308;28;20038;-77
2022/01/18 12:52:26;;;;;;;16.23;4.47;;;;;;;6.51;70.69;103546.50;4979512;28;20468;-76
2022/01/18 12:54:52;;;;;;;11.82;3.80;;;;;;;6.52;70.53;103548.16;4980497;28;20038;-77
2022/01/18 12:57:20;;;;;;;15.38;3.63;;;;;;;6.39;71.18;103550.38;4962219;28;20031;-77